Startpagina
METAR-TAF:

METAR-TAF

Vliegvelden :

Al Qamishli, Syrië

breedte: 37-03N, lengte: 041-13E, hoogte: 455 m

Actueel weer

Dit bericht is 48 minuten geleden gemaakt, om 19:00 UTC
Wind 10 kt uit het noordoosten
Temperatuur 10°C
Vochtigheid 87%
Druk 1020 hPa
Zicht 10 km of meer
geen wolken onder 1500 m en geen cumulonimbus

METAR: OSKL 181900Z 04010KT CAVOK 10/08 Q1020

Tijdstip: 21:48 (19:48 UTC)


TAF: ontbreekt

Waarnemingen en weersverwachtingen van meer dan 4000 vliegvelden (METAR en TAF).

De beschikbare stations zijn de gele en rode punten op de kaart.

Ga met uw muis naar het station om de naam te zien.

Klik dan om waarnemingen en weersverwachtingen te zien.

kaart wijzigen: klik op de groene knoppen met een zwart kruis om in te zoomen, op de groene knop met een streepje om uit te zoomen of op de groene pijlen voor aangrenzende kaarten.


METAR-TAF: